Kansas City, Missouri
Traffic Map
Current Weather Conditions
Kansas City, Missouri
Clear
Clear
25°
Feels Like: 16°
Wind Chill: 16° Ceiling: Unl
Heat Index: 25° Visibility: 10mi
Dew Point: Wind: 9mph
Humidity: 49% Direction: 310° (NW)
Pressure: 30.27in Gusts: 0mph
Raw Report DataKMKC 100254Z 31008KT 10SM CLR M04/M13 A3027 RMK AO2 SLP260 T10391133 50010
Traffic Incident Summary
Active as of:
Severity:
Category:
InformationThere was an issue retrieving the traffic information for this location. Please try a different location or try again shortly.
Advertisements
Track Severe Weather on mobile